Time;durP1;ratioP1;P1;durP2;ratioP2;P2;SDS_P1;SDS_P2;PMS_P1;PMS_P2;Temp;Humidity;BMP_temperature;BMP_pressure;BME280_temperature;BME280_humidity;BME280_pressure;Samples;Min_cycle;Max_cycle;Signal;HPM_P1;HPM_P2
2024/01/28 00:00:51;;;;;;;8.33;5.70;;;16.10;55.00;;;;;;5072259;28;20461;-76
2024/01/28 00:03:20;;;;;;;11.47;5.80;;;16.20;55.00;;;;;;5072492;28;20434;-76
2024/01/28 00:05:51;;;;;;;10.93;5.80;;;16.10;54.90;;;;;;5067596;28;20476;-76
2024/01/28 00:08:19;;;;;;;10.50;6.13;;;16.10;55.00;;;;;;5069508;28;20437;-76
2024/01/28 00:10:47;;;;;;;11.37;6.27;;;16.10;54.90;;;;;;5070376;28;20549;-77
2024/01/28 00:13:18;;;;;;;10.27;5.87;;;16.10;54.70;;;;;;5069108;28;20446;-77
2024/01/28 00:15:48;;;;;;;10.00;6.20;;;16.00;54.80;;;;;;5070593;28;20425;-77
2024/01/28 00:18:17;;;;;;;8.00;5.60;;;16.10;54.90;;;;;;5073310;28;20469;-77
2024/01/28 00:20:46;;;;;;;10.10;6.17;;;16.00;54.90;;;;;;5071022;28;20532;-77
2024/01/28 00:23:14;;;;;;;9.90;6.17;;;16.00;55.00;;;;;;5073610;28;20433;-77
2024/01/28 00:25:42;;;;;;;10.03;5.50;;;16.00;54.90;;;;;;5071319;28;20449;-77
2024/01/28 00:28:10;;;;;;;9.60;5.83;;;16.00;54.90;;;;;;5072460;28;20442;-77
2024/01/28 00:30:38;;;;;;;9.37;6.10;;;16.00;54.90;;;;;;5073157;28;20491;-77
2024/01/28 00:33:06;;;;;;;7.17;5.63;;;16.00;55.10;;;;;;5071751;28;20440;-77
2024/01/28 00:35:35;;;;;;;9.60;5.70;;;16.00;54.90;;;;;;5071467;28;20521;-78
2024/01/28 00:38:06;;;;;;;11.40;6.47;;;16.00;54.80;;;;;;5071645;28;20512;-77
2024/01/28 00:40:34;;;;;;;12.60;6.47;;;15.90;55.00;;;;;;5074046;28;20541;-77
2024/01/28 00:43:03;;;;;;;8.40;6.00;;;15.90;54.80;;;;;;5073730;28;20517;-78
2024/01/28 00:45:31;;;;;;;13.33;5.93;;;15.90;55.00;;;;;;5073541;28;20484;-78
2024/01/28 00:47:59;;;;;;;10.57;6.13;;;15.90;55.00;;;;;;5072730;28;20538;-77
2024/01/28 00:50:27;;;;;;;11.20;6.40;;;15.90;54.80;;;;;;5072121;28;20520;-77
2024/01/28 00:52:56;;;;;;;8.60;5.50;;;15.90;55.00;;;;;;5071739;28;20440;-77
2024/01/28 00:55:24;;;;;;;9.70;6.23;;;15.80;55.00;;;;;;5065277;28;20439;-77
2024/01/28 00:57:52;;;;;;;9.20;5.60;;;15.80;55.00;;;;;;5069852;28;20531;-77
2024/01/28 01:00:20;;;;;;;9.80;6.13;;;15.80;54.90;;;;;;5071335;28;20536;-76
2024/01/28 01:02:52;;;;;;;12.23;6.73;;;15.80;54.90;;;;;;5071107;28;20461;-76
2024/01/28 01:05:19;;;;;;;8.90;5.60;;;15.80;54.80;;;;;;5071222;28;20442;-77
2024/01/28 01:07:47;;;;;;;10.40;6.20;;;15.70;55.00;;;;;;5070791;28;20445;-77
2024/01/28 01:10:17;;;;;;;10.10;5.60;;;15.70;54.60;;;;;;5071166;28;20465;-76
2024/01/28 01:12:47;;;;;;;8.30;5.33;;;15.70;54.80;;;;;;5071162;28;20473;-76
2024/01/28 01:15:15;;;;;;;10.40;5.93;;;15.70;54.70;;;;;;5071466;28;20438;-76
2024/01/28 01:17:44;;;;;;;10.73;5.50;;;15.70;54.60;;;;;;5071710;28;20524;-76
2024/01/28 01:20:12;;;;;;;10.80;5.90;;;15.70;54.90;;;;;;5073947;22;20495;-79
2024/01/28 01:22:41;;;;;;;11.27;5.43;;;15.70;54.70;;;;;;5037230;28;20450;-79
2024/01/28 01:25:09;;;;;;;8.00;5.70;;;15.60;54.70;;;;;;5032825;28;20529;-78
2024/01/28 01:27:38;;;;;;;8.37;5.53;;;15.60;54.60;;;;;;5038411;28;20432;-79
2024/01/28 01:30:07;;;;;;;11.17;6.17;;;15.60;54.80;;;;;;5035728;28;20487;-77
2024/01/28 01:32:35;;;;;;;9.83;5.30;;;15.60;54.60;;;;;;5031025;28;20432;-79
2024/01/28 01:35:04;;;;;;;7.97;5.70;;;15.60;54.60;;;;;;5026964;28;20452;-79
2024/01/28 01:37:32;;;;;;;10.27;5.80;;;15.60;54.80;;;;;;5029962;28;20435;-77
2024/01/28 01:40:01;;;;;;;11.47;6.30;;;15.50;54.60;;;;;;5028486;28;20482;-77
2024/01/28 01:42:30;;;;;;;8.37;5.10;;;15.60;54.90;;;;;;5031162;28;20448;-78
2024/01/28 01:45:00;;;;;;;12.97;5.90;;;15.50;54.70;;;;;;5031095;28;20459;-78
2024/01/28 01:47:28;;;;;;;13.27;6.00;;;15.50;54.80;;;;;;5025613;28;20439;-78
2024/01/28 01:49:56;;;;;;;8.57;5.57;;;15.50;54.80;;;;;;5028137;28;20495;-78
2024/01/28 01:52:24;;;;;;;11.03;5.70;;;15.50;54.80;;;;;;5029959;28;20466;-80
2024/01/28 01:54:52;;;;;;;11.00;5.27;;;15.50;54.70;;;;;;5027089;28;20447;-78
2024/01/28 01:57:20;;;;;;;9.90;5.10;;;15.50;54.50;;;;;;5030434;28;20451;-78
2024/01/28 01:59:48;;;;;;;8.27;5.53;;;15.50;54.60;;;;;;5029126;28;20483;-79
2024/01/28 02:02:18;;;;;;;8.07;5.23;;;15.40;54.60;;;;;;5032060;28;20493;-79
2024/01/28 02:04:46;;;;;;;10.37;6.33;;;15.40;54.60;;;;;;5029942;28;20467;-78
2024/01/28 02:07:13;;;;;;;11.87;5.77;;;15.40;54.60;;;;;;5030508;28;20439;-78
2024/01/28 02:09:42;;;;;;;14.77;6.50;;;15.40;54.50;;;;;;5028697;28;20532;-79
2024/01/28 02:12:10;;;;;;;14.00;6.20;;;15.40;54.50;;;;;;5029890;28;20447;-78
2024/01/28 02:14:39;;;;;;;11.77;5.90;;;15.30;54.50;;;;;;5031865;28;20436;-78
2024/01/28 02:17:07;;;;;;;10.90;6.43;;;15.30;54.40;;;;;;5031079;28;20439;-79
2024/01/28 02:19:37;;;;;;;10.33;5.90;;;15.30;54.20;;;;;;5024950;28;20506;-79
2024/01/28 02:22:05;;;;;;;11.20;5.67;;;15.30;54.40;;;;;;5033591;28;20451;-79
2024/01/28 02:24:34;;;;;;;9.93;5.63;;;15.30;54.30;;;;;;5032715;28;20478;-79
2024/01/28 02:27:03;;;;;;;12.27;6.37;;;15.30;54.50;;;;;;5032643;28;20444;-79
2024/01/28 02:29:31;;;;;;;9.27;5.77;;;15.20;54.30;;;;;;5031081;28;20473;-79
2024/01/28 02:31:59;;;;;;;8.67;5.13;;;15.20;54.40;;;;;;5033537;28;20451;-79
2024/01/28 02:34:27;;;;;;;11.93;5.93;;;15.20;54.40;;;;;;5034136;28;20455;-79
2024/01/28 02:36:55;;;;;;;16.17;5.80;;;15.20;54.30;;;;;;5036149;28;20467;-79
2024/01/28 02:39:23;;;;;;;8.87;5.97;;;15.20;54.10;;;;;;5031937;28;21048;-79
2024/01/28 02:41:53;;;;;;;11.00;5.90;;;15.10;54.70;;;;;;5034038;28;20472;-80
2024/01/28 02:44:21;;;;;;;10.80;7.20;;;15.10;54.10;;;;;;5037794;28;20501;-79
2024/01/28 02:46:49;;;;;;;13.43;6.00;;;15.10;54.10;;;;;;5029725;28;20530;-79
2024/01/28 02:49:17;;;;;;;10.20;5.73;;;15.10;54.10;;;;;;5034187;28;20431;-79
2024/01/28 02:51:45;;;;;;;8.77;6.00;;;15.10;54.00;;;;;;5034362;28;20463;-79
2024/01/28 02:54:14;;;;;;;11.20;6.17;;;15.10;54.00;;;;;;5035907;28;20451;-79
2024/01/28 02:56:42;;;;;;;15.00;6.50;;;15.00;53.60;;;;;;5038010;28;20487;-79
2024/01/28 02:59:12;;;;;;;9.37;5.77;;;15.00;54.00;;;;;;5036334;28;20475;-78
2024/01/28 03:01:45;;;;;;;12.87;6.43;;;15.00;53.80;;;;;;5035738;28;20455;-78
2024/01/28 03:04:14;;;;;;;8.70;5.37;;;15.00;53.80;;;;;;5034309;28;20432;-78
2024/01/28 03:06:43;;;;;;;13.83;6.57;;;14.90;53.70;;;;;;5036257;28;20447;-79
2024/01/28 03:09:11;;;;;;;11.70;6.00;;;14.90;53.80;;;;;;5036602;28;20586;-79
2024/01/28 03:11:41;;;;;;;8.23;5.33;;;14.90;54.00;;;;;;5036039;28;20447;-79
2024/01/28 03:14:11;;;;;;;13.53;6.23;;;14.90;53.80;;;;;;5033525;28;20479;-78
2024/01/28 03:16:39;;;;;;;11.70;5.73;;;14.90;53.80;;;;;;5034855;28;20486;-79
2024/01/28 03:19:07;;;;;;;9.77;6.13;;;14.90;53.80;;;;;;5035391;28;21016;-79
2024/01/28 03:21:35;;;;;;;9.00;5.77;;;14.90;53.80;;;;;;5035740;28;20448;-79
2024/01/28 03:24:03;;;;;;;11.70;5.60;;;14.90;53.90;;;;;;5035179;28;20455;-79
2024/01/28 03:26:34;;;;;;;9.10;5.70;;;14.90;53.60;;;;;;5030884;28;20451;-78
2024/01/28 03:29:02;;;;;;;8.67;5.33;;;14.80;53.70;;;;;;5036092;28;20501;-79
2024/01/28 03:31:31;;;;;;;8.50;6.10;;;14.80;53.70;;;;;;5035386;28;20458;-78
2024/01/28 03:33:59;;;;;;;11.20;6.10;;;14.80;53.70;;;;;;5028687;28;20522;-78
2024/01/28 03:36:27;;;;;;;10.40;5.83;;;14.80;53.70;;;;;;5033311;28;20452;-78
2024/01/28 03:38:55;;;;;;;7.67;5.77;;;14.80;53.70;;;;;;5034833;28;20478;-78
2024/01/28 03:41:23;;;;;;;10.33;5.40;;;14.80;53.60;;;;;;5035351;28;20468;-79
2024/01/28 03:43:52;;;;;;;7.10;5.07;;;14.70;53.60;;;;;;5033937;28;20451;-79
2024/01/28 03:46:20;;;;;;;7.93;5.60;;;14.70;53.60;;;;;;5034619;28;20961;-78
2024/01/28 03:48:49;;;;;;;10.00;6.00;;;14.70;53.60;;;;;;5033560;28;20529;-79
2024/01/28 03:51:18;;;;;;;10.97;5.80;;;14.70;53.60;;;;;;5021769;28;20475;-79
2024/01/28 03:53:46;;;;;;;9.83;6.10;;;14.70;53.50;;;;;;5033745;28;20455;-79
2024/01/28 03:56:14;;;;;;;10.20;5.80;;;14.70;53.60;;;;;;5033652;28;20521;-79
2024/01/28 03:58:42;;;;;;;10.37;5.30;;;14.70;53.40;;;;;;5034575;28;20509;-79
2024/01/28 04:01:11;;;;;;;10.53;5.10;;;14.60;53.50;;;;;;5029299;28;20514;-79
2024/01/28 04:03:39;;;;;;;8.80;5.43;;;14.60;53.70;;;;;;5033530;28;20454;-78
2024/01/28 04:06:09;;;;;;;10.10;6.00;;;14.60;53.40;;;;;;5033733;28;20455;-78
2024/01/28 04:08:37;;;;;;;11.73;6.13;;;14.60;53.40;;;;;;5032605;28;20463;-79
2024/01/28 04:11:06;;;;;;;9.47;5.93;;;14.60;53.50;;;;;;5033148;28;20554;-78
2024/01/28 04:13:34;;;;;;;13.00;6.17;;;14.60;53.50;;;;;;5032841;28;20576;-78
2024/01/28 04:16:02;;;;;;;10.70;5.93;;;14.60;53.40;;;;;;5033244;28;20490;-79
2024/01/28 04:18:30;;;;;;;10.67;5.80;;;14.60;53.60;;;;;;5023007;28;20455;-80
2024/01/28 04:20:59;;;;;;;11.03;5.83;;;14.60;53.40;;;;;;5024154;28;20506;-79
2024/01/28 04:23:28;;;;;;;9.50;5.53;;;14.60;53.50;;;;;;5032539;28;20539;-79
2024/01/28 04:25:56;;;;;;;15.43;5.30;;;14.60;53.50;;;;;;5021578;28;20539;-79
2024/01/28 04:28:25;;;;;;;14.47;5.87;;;14.60;53.50;;;;;;5030875;28;20529;-78
2024/01/28 04:30:54;;;;;;;8.80;5.63;;;14.50;53.40;;;;;;5028706;28;20487;-78
2024/01/28 04:33:22;;;;;;;8.50;5.63;;;14.50;53.40;;;;;;5028249;28;21008;-78
2024/01/28 04:35:50;;;;;;;9.90;5.87;;;14.50;53.50;;;;;;5032478;28;20555;-78
2024/01/28 04:38:18;;;;;;;11.20;5.83;;;14.50;53.50;;;;;;5026130;28;20510;-79
2024/01/28 04:40:47;;;;;;;13.10;6.17;;;14.50;53.70;;;;;;5030014;28;20507;-79
2024/01/28 04:43:19;;;;;;;7.00;5.20;;;14.50;53.70;;;;;;5032041;28;20427;-78
2024/01/28 04:45:47;;;;;;;13.03;6.13;;;14.50;53.60;;;;;;5032834;28;20959;-77
2024/01/28 04:48:15;;;;;;;7.23;5.33;;;14.50;53.70;;;;;;5013893;28;20520;-79
2024/01/28 04:50:44;;;;;;;10.03;6.00;;;14.50;53.70;;;;;;5024423;28;20455;-78
2024/01/28 04:53:12;;;;;;;9.93;5.53;;;14.40;53.60;;;;;;5030138;28;20996;-78
2024/01/28 04:55:40;;;;;;;9.27;6.30;;;14.40;53.80;;;;;;5022959;28;20466;-78
2024/01/28 04:58:10;;;;;;;9.30;5.47;;;14.40;53.60;;;;;;5032784;28;20463;-78
2024/01/28 05:00:38;;;;;;;10.23;5.60;;;14.40;53.70;;;;;;5028218;28;20538;-80
2024/01/28 05:03:07;;;;;;;9.50;5.60;;;14.40;53.80;;;;;;5033069;28;20454;-77
2024/01/28 05:05:35;;;;;;;9.70;5.70;;;14.40;53.70;;;;;;5029025;28;20471;-78
2024/01/28 05:08:04;;;;;;;13.33;6.30;;;14.40;53.80;;;;;;5032598;28;20443;-77
2024/01/28 05:10:32;;;;;;;10.07;6.00;;;14.40;53.60;;;;;;5033206;28;20469;-76
2024/01/28 05:13:00;;;;;;;10.27;5.33;;;14.40;53.70;;;;;;5031377;28;20509;-77
2024/01/28 05:15:29;;;;;;;8.00;5.13;;;14.40;53.70;;;;;;5017465;28;20543;-77
2024/01/28 05:17:57;;;;;;;10.67;5.47;;;14.40;53.80;;;;;;5032648;28;20462;-77
2024/01/28 05:20:26;;;;;;;8.40;5.77;;;14.40;53.60;;;;;;5032391;28;20475;-78
2024/01/28 05:22:54;;;;;;;10.13;5.67;;;14.40;53.70;;;;;;5032199;28;20546;-77
2024/01/28 05:25:22;;;;;;;7.80;5.17;;;14.30;53.50;;;;;;5032552;28;20494;-76
2024/01/28 05:27:50;;;;;;;8.77;5.00;;;14.30;53.80;;;;;;5032778;28;20447;-77
2024/01/28 05:30:18;;;;;;;10.50;5.97;;;14.40;53.90;;;;;;5031989;28;20448;-78
2024/01/28 05:32:48;;;;;;;9.10;5.63;;;14.30;53.70;;;;;;5027789;28;20443;-77
2024/01/28 05:35:16;;;;;;;9.17;5.63;;;14.30;53.60;;;;;;5032699;28;20436;-78
2024/01/28 05:37:44;;;;;;;8.07;5.50;;;14.30;53.70;;;;;;5032390;28;20494;-77
2024/01/28 05:40:13;;;;;;;8.03;5.20;;;14.30;53.60;;;;;;5032292;28;20575;-77
2024/01/28 05:42:40;;;;;;;14.00;5.67;;;14.30;53.70;;;;;;5032327;28;20958;-78
2024/01/28 05:45:09;;;;;;;9.27;5.53;;;14.30;53.70;;;;;;5032348;28;20439;-77
2024/01/28 05:47:37;;;;;;;10.60;5.67;;;14.30;53.70;;;;;;5031985;28;20447;-77
2024/01/28 05:50:06;;;;;;;8.50;5.10;;;14.20;53.60;;;;;;5032329;28;20463;-77
2024/01/28 05:52:34;;;;;;;6.47;4.87;;;14.20;53.60;;;;;;5032827;28;20504;-77
2024/01/28 05:55:02;;;;;;;10.67;5.33;;;14.20;53.60;;;;;;5031873;28;20530;-77
2024/01/28 05:57:31;;;;;;;7.77;5.03;;;14.20;53.60;;;;;;5032025;28;20443;-77
2024/01/28 05:59:59;;;;;;;9.33;5.60;;;14.20;53.60;;;;;;5031971;28;20463;-78
2024/01/28 06:02:26;;;;;;;6.67;4.60;;;14.20;53.50;;;;;;5025876;28;21052;-76
2024/01/28 06:04:54;;;;;;;9.37;5.87;;;14.20;53.40;;;;;;5021829;28;20495;-77
2024/01/28 06:07:23;;;;;;;6.67;4.87;;;14.10;53.50;;;;;;5024344;28;20493;-77
2024/01/28 06:09:51;;;;;;;8.53;5.47;;;14.10;53.70;;;;;;5032243;28;20574;-77
2024/01/28 06:12:19;;;;;;;8.27;4.93;;;14.10;53.50;;;;;;5032380;28;20436;-78
2024/01/28 06:14:47;;;;;;;8.63;5.50;;;14.10;53.50;;;;;;5032409;28;20450;-77
2024/01/28 06:17:15;;;;;;;10.97;5.03;;;14.10;53.60;;;;;;5024442;28;20531;-78
2024/01/28 06:19:44;;;;;;;10.13;4.73;;;14.10;53.60;;;;;;5030932;28;20513;-78
2024/01/28 06:22:12;;;;;;;8.13;5.07;;;14.10;53.60;;;;;;5032079;28;20482;-78
2024/01/28 06:24:42;;;;;;;13.27;5.33;;;14.10;53.40;;;;;;5036449;28;20431;-78
2024/01/28 06:27:10;;;;;;;6.53;4.73;;;14.10;53.50;;;;;;5036665;28;20497;-78
2024/01/28 06:29:37;;;;;;;11.77;5.47;;;14.00;53.50;;;;;;5034380;28;20459;-77
2024/01/28 06:32:06;;;;;;;6.97;4.60;;;14.10;53.50;;;;;;5018025;28;20471;-78
2024/01/28 06:34:34;;;;;;;8.13;5.40;;;14.10;53.70;;;;;;5036431;28;20488;-78
2024/01/28 06:37:02;;;;;;;9.27;5.37;;;14.10;53.50;;;;;;5031913;28;20462;-78
2024/01/28 06:39:31;;;;;;;9.47;5.60;;;14.00;53.50;;;;;;5036665;28;20459;-78
2024/01/28 06:42:00;;;;;;;8.20;4.90;;;14.00;53.30;;;;;;5036056;28;20478;-78
2024/01/28 06:44:29;;;;;;;8.30;4.90;;;14.00;53.40;;;;;;5035157;28;20447;-78
2024/01/28 06:46:57;;;;;;;7.40;5.20;;;14.00;53.60;;;;;;5036527;28;20443;-78
2024/01/28 06:49:25;;;;;;;6.77;4.97;;;14.00;53.40;;;;;;5020246;28;20470;-78
2024/01/28 06:51:53;;;;;;;10.80;5.47;;;14.00;53.40;;;;;;5031912;28;20436;-79
2024/01/28 06:54:22;;;;;;;10.60;5.57;;;14.00;53.40;;;;;;5037531;28;20530;-77
2024/01/28 06:56:51;;;;;;;8.93;4.63;;;14.00;53.50;;;;;;5039719;28;20461;-78
2024/01/28 06:59:20;;;;;;;7.97;4.90;;;14.00;53.10;;;;;;5039131;28;20462;-78
2024/01/28 07:01:48;;;;;;;8.40;4.63;;;13.90;53.40;;;;;;5038840;28;20475;-81
2024/01/28 07:04:16;;;;;;;9.43;5.30;;;14.00;53.20;;;;;;5029638;28;20439;-80
2024/01/28 07:06:44;;;;;;;7.30;4.37;;;14.00;53.30;;;;;;5019290;28;20463;-78
2024/01/28 07:09:13;;;;;;;8.63;5.00;;;13.90;53.20;;;;;;5027317;28;20562;-78
2024/01/28 07:11:40;;;;;;;8.83;5.23;;;13.90;53.10;;;;;;5037700;28;20505;-78
2024/01/28 07:14:08;;;;;;;10.47;4.97;;;13.90;53.00;;;;;;5035913;28;20449;-80
2024/01/28 07:16:38;;;;;;;8.90;4.73;;;13.90;53.20;;;;;;5031698;28;20472;-79
2024/01/28 07:19:10;;;;;;;7.00;4.63;;;13.90;53.00;;;;;;5033422;28;20427;-79
2024/01/28 07:21:38;;;;;;;7.57;4.70;;;13.90;53.10;;;;;;5032110;28;20511;-79
2024/01/28 07:24:07;;;;;;;7.17;4.40;;;13.90;53.00;;;;;;5035302;28;20446;-79
2024/01/28 07:26:36;;;;;;;10.10;5.40;;;13.90;53.00;;;;;;5035564;28;20443;-79
2024/01/28 07:29:04;;;;;;;10.13;5.10;;;13.90;53.10;;;;;;5034634;28;20479;-80
2024/01/28 07:31:32;;;;;;;12.50;5.10;;;13.90;53.00;;;;;;5026932;28;20507;-80
2024/01/28 07:34:03;;;;;;;10.67;5.20;;;13.90;53.00;;;;;;5034781;28;20471;-80
2024/01/28 07:36:31;;;;;;;9.50;5.00;;;13.90;53.10;;;;;;5035859;28;20441;-79
2024/01/28 07:39:07;;;;;;;7.80;4.60;;;13.90;53.00;;;;;;5035415;28;20458;-78
2024/01/28 07:41:36;;;;;;;8.50;4.87;;;13.90;52.90;;;;;;5028622;28;20473;-79
2024/01/28 07:44:05;;;;;;;7.83;4.97;;;13.90;53.10;;;;;;5034823;28;20942;-79
2024/01/28 07:46:33;;;;;;;10.13;5.17;;;13.90;53.00;;;;;;5025617;28;20451;-80
2024/01/28 07:49:03;;;;;;;10.20;5.13;;;13.90;52.90;;;;;;5036075;28;20443;-78
2024/01/28 07:51:32;;;;;;;8.93;4.87;;;13.90;53.10;;;;;;5031288;28;20527;-79
2024/01/28 07:54:00;;;;;;;6.50;4.10;;;14.00;53.00;;;;;;5035217;28;20461;-80
2024/01/28 07:56:28;;;;;;;9.83;4.57;;;14.00;53.00;;;;;;5036328;28;20439;-79
2024/01/28 07:58:56;;;;;;;9.87;5.07;;;14.00;52.80;;;;;;5036022;28;20474;-79
2024/01/28 08:01:26;;;;;;;10.50;4.97;;;14.00;53.20;;;;;;5034710;28;20496;-79
2024/01/28 08:03:55;;;;;;;9.57;4.80;;;14.00;53.00;;;;;;5035387;28;20448;-80
2024/01/28 08:06:25;;;;;;;9.60;4.87;;;14.00;53.00;;;;;;5036288;28;20463;-79
2024/01/28 08:08:53;;;;;;;8.43;4.30;;;14.00;53.10;;;;;;5035091;28;20447;-77
2024/01/28 08:11:22;;;;;;;7.43;4.30;;;14.00;53.10;;;;;;5034276;28;20535;-77
2024/01/28 08:13:50;;;;;;;6.13;4.23;;;14.00;53.10;;;;;;5033813;28;20519;-79
2024/01/28 08:16:18;;;;;;;10.10;4.80;;;14.00;53.10;;;;;;5034135;28;20447;-79
2024/01/28 08:18:47;;;;;;;8.67;4.67;;;14.10;53.20;;;;;;5036935;28;20533;-79
2024/01/28 08:21:15;;;;;;;8.37;5.03;;;14.10;53.90;;;;;;5032422;28;20479;-79
2024/01/28 08:23:45;;;;;;;6.90;4.50;;;14.10;53.10;;;;;;5035006;28;20482;-80
2024/01/28 08:26:15;;;;;;;5.13;4.50;;;14.10;53.20;;;;;;5035905;28;20447;-80
2024/01/28 08:28:47;;;;;;;8.60;4.90;;;14.20;53.40;;;;;;5035386;28;20451;-79
2024/01/28 08:31:15;;;;;;;11.10;4.63;;;14.20;53.40;;;;;;5035537;28;20463;-80
2024/01/28 08:33:44;;;;;;;9.07;4.83;;;14.30;53.40;;;;;;5032437;28;20444;-78
2024/01/28 08:36:12;;;;;;;6.90;4.67;;;14.30;53.40;;;;;;5034559;28;20523;-79
2024/01/28 08:38:40;;;;;;;8.03;4.40;;;14.30;53.50;;;;;;5035379;28;20458;-81
2024/01/28 08:41:13;;;;;;;7.27;4.67;;;14.40;53.70;;;;;;5035551;28;20470;-80
2024/01/28 08:43:43;;;;;;;6.33;3.70;;;14.50;53.80;;;;;;5033626;28;20558;-78
2024/01/28 08:46:11;;;;;;;5.93;3.93;;;14.60;53.90;;;;;;5035031;28;20440;-80
2024/01/28 08:48:40;;;;;;;8.03;4.47;;;14.60;54.00;;;;;;5035262;28;20447;-78
2024/01/28 08:51:08;;;;;;;8.20;4.17;;;14.70;54.30;;;;;;5035662;28;20477;-80
2024/01/28 08:53:37;;;;;;;7.30;4.53;;;14.90;54.40;;;;;;5030556;28;20534;-80
2024/01/28 08:56:05;;;;;;;6.20;3.80;;;15.00;54.60;;;;;;5034993;28;20436;-79
2024/01/28 08:58:38;;;;;;;9.07;4.83;;;15.10;54.90;;;;;;5035133;28;20432;-78
2024/01/28 09:01:07;;;;;;;6.63;4.50;;;15.30;55.20;;;;;;5034530;28;20464;-79
2024/01/28 09:03:36;;;;;;;8.77;4.43;;;15.40;55.50;;;;;;5034545;28;20517;-79
2024/01/28 09:06:06;;;;;;;5.80;3.73;;;15.50;55.90;;;;;;5035204;28;20453;-79
2024/01/28 09:08:34;;;;;;;6.60;4.30;;;15.70;56.40;;;;;;5032383;28;20461;-79
2024/01/28 09:11:02;;;;;;;5.20;3.93;;;15.90;56.70;;;;;;5032455;28;20466;-79
2024/01/28 09:13:30;;;;;;;7.03;4.37;;;16.10;57.00;;;;;;5029433;28;20436;-79
2024/01/28 09:15:59;;;;;;;4.37;3.87;;;16.30;57.30;;;;;;5033747;28;20435;-78
2024/01/28 09:18:28;;;;;;;6.47;4.50;;;16.50;57.60;;;;;;5033963;28;20439;-79
2024/01/28 09:20:56;;;;;;;8.57;4.70;;;16.80;58.00;;;;;;5033646;28;20474;-79
2024/01/28 09:23:24;;;;;;;7.23;4.87;;;16.90;58.40;;;;;;5033023;28;20562;-79
2024/01/28 09:25:52;;;;;;;7.60;5.20;;;17.10;58.70;;;;;;5029866;28;20501;-79
2024/01/28 09:28:20;;;;;;;5.80;4.10;;;17.30;58.90;;;;;;5032554;28;20511;-79
2024/01/28 09:30:50;;;;;;;8.33;4.50;;;17.50;59.30;;;;;;5028630;28;20514;-79
2024/01/28 09:33:20;;;;;;;9.20;5.20;;;17.70;59.50;;;;;;5033195;28;20498;-80
2024/01/28 09:35:52;;;;;;;5.53;4.50;;;17.80;59.80;;;;;;5029224;28;21054;-79
2024/01/28 09:38:21;;;;;;;4.90;3.83;;;18.00;60.10;;;;;;5032089;28;20455;-79
2024/01/28 09:40:54;;;;;;;5.87;4.20;;;18.10;60.10;;;;;;5033696;28;20471;-79
2024/01/28 09:43:27;;;;;;;5.60;4.30;;;18.30;60.40;;;;;;5034342;28;20467;-80
2024/01/28 09:45:55;;;;;;;7.10;4.13;;;18.40;60.50;;;;;;5027392;28;20444;-80
2024/01/28 09:48:25;;;;;;;7.00;4.87;;;18.50;60.50;;;;;;5034082;28;20439;-80
2024/01/28 09:50:53;;;;;;;7.10;4.77;;;18.60;60.70;;;;;;5033852;28;20471;-81
2024/01/28 09:53:22;;;;;;;11.73;5.23;;;18.70;60.90;;;;;;5031555;28;20439;-83
2024/01/28 09:55:50;;;;;;;6.83;4.73;;;18.80;61.10;;;;;;5035034;28;20447;-80
2024/01/28 09:58:18;;;;;;;6.93;4.67;;;18.90;61.30;;;;;;5035677;28;20444;-80
2024/01/28 10:00:47;;;;;;;5.73;4.30;;;19.10;61.50;;;;;;5031266;28;20471;-80
2024/01/28 10:03:15;;;;;;;11.87;4.50;;;19.30;61.70;;;;;;5029041;28;20537;-80
2024/01/28 10:05:49;;;;;;;6.20;4.50;;;19.40;61.90;;;;;;5034745;28;20458;-81
2024/01/28 10:08:17;;;;;;;7.93;4.53;;;19.60;62.00;;;;;;5025459;28;20598;-79
2024/01/28 10:10:46;;;;;;;6.60;4.10;;;19.70;62.30;;;;;;5022325;28;20464;-79
2024/01/28 10:13:14;;;;;;;5.10;4.07;;;19.90;62.40;;;;;;5036705;28;20436;-79
2024/01/28 10:15:42;;;;;;;5.00;4.03;;;20.10;62.70;;;;;;5037136;28;20451;-80
2024/01/28 10:18:10;;;;;;;6.30;4.10;;;20.20;62.60;;;;;;5034113;28;20445;-81
2024/01/28 10:20:38;;;;;;;6.40;4.30;;;20.40;62.80;;;;;;5034579;28;20506;-80
2024/01/28 10:23:08;;;;;;;8.40;4.27;;;20.50;62.70;;;;;;5039920;28;20478;-80
2024/01/28 10:25:36;;;;;;;5.17;3.60;;;20.80;63.00;;;;;;5039364;28;20490;-80
2024/01/28 10:28:07;;;;;;;6.27;4.20;;;20.90;62.80;;;;;;5035419;28;20436;-81
2024/01/28 10:30:37;;;;;;;8.23;3.90;;;21.00;62.80;;;;;;5038874;28;20487;-80
2024/01/28 10:33:15;;;;;;;6.10;3.87;;;21.20;62.80;;;;;;5036696;28;20453;-81
2024/01/28 10:35:45;;;;;;;9.10;4.10;;;21.30;62.60;;;;;;5034694;28;20482;-80
2024/01/28 10:38:16;;;;;;;6.83;4.43;;;21.40;62.60;;;;;;5033530;28;20482;-81
2024/01/28 10:40:46;;;;;;;5.07;3.73;;;21.60;62.70;;;;;;5033306;28;20464;-81
2024/01/28 10:43:18;;;;;;;5.63;4.03;;;21.70;62.60;;;;;;5034656;28;20501;-81
2024/01/28 10:45:49;;;;;;;6.23;3.60;;;21.80;62.70;;;;;;5032442;28;20455;-81
2024/01/28 10:48:18;;;;;;;6.03;3.70;;;21.90;62.60;;;;;;5029865;28;20458;-81
2024/01/28 10:50:47;;;;;;;6.20;4.00;;;22.10;62.60;;;;;;5031040;28;20459;-80
2024/01/28 10:53:16;;;;;;;8.90;4.10;;;22.20;62.30;;;;;;5026581;28;20451;-81
2024/01/28 10:55:45;;;;;;;4.47;3.47;;;22.30;62.00;;;;;;5032999;28;20430;-81
2024/01/28 10:58:13;;;;;;;3.90;3.50;;;22.50;61.80;;;;;;5024950;28;20456;-82
2024/01/28 11:00:42;;;;;;;5.27;3.67;;;22.70;61.70;;;;;;5023268;28;20537;-81
2024/01/28 11:03:10;;;;;;;4.93;4.00;;;22.80;61.50;;;;;;5028857;28;20479;-80
2024/01/28 11:05:39;;;;;;;5.00;3.50;;;23.00;61.30;;;;;;5026123;28;20444;-80
2024/01/28 11:08:07;;;;;;;6.20;3.73;;;23.20;61.10;;;;;;5036416;28;20502;-80
2024/01/28 11:10:37;;;;;;;5.43;3.40;;;23.30;60.60;;;;;;5033245;28;20446;-80
2024/01/28 11:13:06;;;;;;;4.60;3.40;;;23.50;60.50;;;;;;5034713;28;20518;-81
2024/01/28 11:15:34;;;;;;;6.50;3.80;;;23.60;60.00;;;;;;5037271;28;20444;-81
2024/01/28 11:18:02;;;;;;;5.20;3.60;;;23.80;59.70;;;;;;5032016;28;20459;-81
2024/01/28 11:20:32;;;;;;;3.73;3.30;;;23.90;59.20;;;;;;5039943;28;20486;-81
2024/01/28 11:23:02;;;;;;;3.53;3.13;;;24.10;58.90;;;;;;5038963;28;20452;-79
2024/01/28 11:25:30;;;;;;;3.63;2.93;;;24.30;58.50;;;;;;5031700;28;20455;-81
2024/01/28 11:28:01;;;;;;;14.13;4.03;;;24.40;58.00;;;;;;5035669;28;20534;-80
2024/01/28 11:30:30;;;;;;;4.27;3.57;;;24.60;57.70;;;;;;5036999;28;20514;-81
2024/01/28 11:33:08;;;;;;;5.40;3.47;;;24.80;57.20;;;;;;5040602;28;20426;-81
2024/01/28 11:35:37;;;;;;;6.70;4.43;;;24.90;56.70;;;;;;5039615;28;20456;-81
2024/01/28 11:38:06;;;;;;;7.03;4.30;;;25.10;56.20;;;;;;5041115;28;20422;-81
2024/01/28 11:40:36;;;;;;;7.80;4.57;;;25.20;55.70;;;;;;5040655;28;20471;-81
2024/01/28 11:43:07;;;;;;;6.83;4.23;;;25.40;55.30;;;;;;5033425;28;20445;-81
2024/01/28 11:45:37;;;;;;;6.73;4.23;;;25.60;54.90;;;;;;5030142;28;20454;-81
2024/01/28 11:48:09;;;;;;;5.03;4.53;;;25.70;54.40;;;;;;5034632;28;20451;-82
2024/01/28 11:50:39;;;;;;;4.67;4.17;;;25.90;54.10;;;;;;5034311;28;20445;-81
2024/01/28 11:53:09;;;;;;;7.13;4.77;;;26.10;53.70;;;;;;5033575;28;20502;-82
2024/01/28 11:55:38;;;;;;;6.77;5.27;;;26.20;53.50;;;;;;5039294;28;20443;-79
2024/01/28 11:58:07;;;;;;;6.43;4.40;;;26.40;53.10;;;;;;5027757;28;20423;-80
2024/01/28 12:00:35;;;;;;;6.33;5.23;;;26.60;52.60;;;;;;5025014;28;20465;-79
2024/01/28 12:03:04;;;;;;;5.50;4.60;;;26.80;52.40;;;;;;5032631;28;20537;-79
2024/01/28 12:05:33;;;;;;;5.70;4.53;;;27.00;51.90;;;;;;5036126;28;20502;-79
2024/01/28 12:08:02;;;;;;;6.90;4.50;;;27.10;51.60;;;;;;5030819;28;20458;-80
2024/01/28 12:10:35;;;;;;;9.77;5.40;;;27.30;51.20;;;;;;5036511;28;20470;-80
2024/01/28 12:13:05;;;;;;;7.93;4.80;;;27.40;50.80;;;;;;5034154;28;20425;-79
2024/01/28 12:15:35;;;;;;;7.50;4.87;;;27.50;50.50;;;;;;5031405;28;20482;-79
2024/01/28 12:18:04;;;;;;;5.23;4.73;;;27.70;50.40;;;;;;5037015;28;20482;-79
2024/01/28 12:20:32;;;;;;;5.33;4.60;;;27.80;50.10;;;;;;5033275;28;20457;-78
2024/01/28 12:23:01;;;;;;;4.60;4.23;;;28.00;49.80;;;;;;5032552;28;20509;-80
2024/01/28 12:25:29;;;;;;;5.13;4.63;;;28.20;49.40;;;;;;5035454;28;20537;-80
2024/01/28 12:27:58;;;;;;;7.20;4.40;;;28.40;49.10;;;;;;5024363;28;20451;-81
2024/01/28 12:30:26;;;;;;;4.70;4.20;;;28.50;48.90;;;;;;5026587;28;20467;-81
2024/01/28 12:32:56;;;;;;;4.83;4.37;;;28.60;48.40;;;;;;5028917;28;20452;-81
2024/01/28 12:35:25;;;;;;;4.53;4.13;;;28.70;48.10;;;;;;5029709;28;20539;-80
2024/01/28 12:37:53;;;;;;;5.23;3.87;;;28.80;48.00;;;;;;5034160;28;20452;-80
2024/01/28 12:40:21;;;;;;;5.27;3.93;;;28.90;47.70;;;;;;5030324;28;20886;-80
2024/01/28 12:42:49;;;;;;;4.03;3.63;;;29.00;47.40;;;;;;5037508;28;20474;-80
2024/01/28 12:45:18;;;;;;;4.23;3.77;;;29.10;47.50;;;;;;5033103;28;20502;-80
2024/01/28 12:47:46;;;;;;;5.27;3.77;;;29.20;47.30;;;;;;5039652;28;20443;-80
2024/01/28 12:50:16;;;;;;;4.67;4.10;;;29.30;47.30;;;;;;5033913;28;20494;-82